Mc Alester Regional Airport
KMLC : now visible

Airfield :











YOU CAN JOIN US ON...

 
LOGIN :

Register | Disclaimer

   EN    FR    IT 

 









Legend :    VFR   Marginal VFR   IFR   Intensive IFR   Very Intensive IFR
Visi :
Ceiling :
>= 8 km
>= 3000ft
5 to 8 km
1000 to 3000 ft
1500m to 5 km
500 to 1000 ft
800 to 1500m
200 to 500 ft
< 800m
< 200 ft
Symbols :   Thunderstorms  Fog  Heavy snow  Heavy precipitations  Wind > 20 kt







- Airport Elevation : 770 ft


KMLC - Mc Alester Regional

CURRENT METAR :
  • 181606Z AUTO 35016G26KT 10SM FEW023 OVC031 14/09 A2981 RMK AO2 PK WND 36026/1601 T01440094

EXPIRED METARs :
  • 181553Z AUTO 36016G25KT 10SM FEW020 OVC029 14/09 A2980 RMK AO2 PK WND 36027/1501 RAB03E12 SLP087 P0000 T01440094
  • 181533Z AUTO 36017G23KT 10SM BKN016 OVC024 14/11 A2979 RMK AO2 PK WND 36027/1501 RAB03E12 P0000 T01390106
  • 181453Z AUTO 35012G20KT 10SM OVC012 14/11 A2979 RMK AO2 PK WND 36026/1439 RAB1356E50 SLP082 P0000 60000 T01390111 53032
  • 181353Z AUTO 34013G21KT 10SM OVC013 16/13 A2975 RMK AO2 SLP067 T01560133

Expired Forecast.
KZFW FIR / North America



MET'MAP, your aeronautical weather chart ! - Copyright ORBIFLY December 2007 - Disclaimer

ORBIFLY MET'MAP TEAM :

Programming & Development : Alexandra Zaïnal
Concept & Development : Baudouin d'Aumeries
Co-Development & Prog : Marc-Olivier Méhu
Technical & hardware support : Manuel Goepfert

Contact : metmap@orbifly.com




SOURCES & CREDITS :

   NOAA       Earth
Advisory